createdAt,value
2017-07-28T00:00:01.801Z,15
2017-07-28T00:05:01.949Z,15
2017-07-28T00:10:01.779Z,15
2017-07-28T00:15:01.789Z,15
2017-07-28T00:20:01.470Z,15
2017-07-28T00:25:01.446Z,15
2017-07-28T00:30:01.232Z,15
2017-07-28T00:35:01.297Z,15
2017-07-28T00:40:02.023Z,15
2017-07-28T00:45:01.814Z,15
2017-07-28T00:50:01.452Z,15
2017-07-28T00:55:02.127Z,15
2017-07-28T01:00:01.885Z,15
2017-07-28T01:05:01.935Z,15
2017-07-28T01:10:01.771Z,15
2017-07-28T01:15:01.193Z,15
2017-07-28T01:20:01.839Z,15
2017-07-28T01:25:01.612Z,15
2017-07-28T01:30:01.369Z,15
2017-07-28T01:35:02.063Z,15
2017-07-28T01:40:01.809Z,15
2017-07-28T01:45:01.729Z,15
2017-07-28T01:50:01.440Z,15
2017-07-28T01:55:01.396Z,15
2017-07-28T02:00:01.396Z,15
2017-07-28T02:05:01.448Z,15
2017-07-28T02:10:01.490Z,15
2017-07-28T02:15:01.828Z,15
2017-07-28T02:20:01.851Z,15
2017-07-28T02:25:01.285Z,15
2017-07-28T02:30:02.120Z,15
2017-07-28T02:35:01.209Z,15
2017-07-28T02:40:01.706Z,15
2017-07-28T02:45:01.469Z,15
2017-07-28T02:50:01.526Z,15
2017-07-28T02:55:02.008Z,15
2017-07-28T03:00:02.032Z,15
2017-07-28T03:05:01.861Z,15
2017-07-28T03:10:01.608Z,15
2017-07-28T03:15:01.892Z,15
2017-07-28T03:20:01.546Z,15
2017-07-28T03:25:01.260Z,15
2017-07-28T03:30:01.220Z,15
2017-07-28T03:35:01.479Z,14.8
2017-07-28T03:40:01.920Z,14.6
2017-07-28T03:45:01.537Z,14.6
2017-07-28T03:50:01.523Z,14.6
2017-07-28T03:55:01.216Z,14.4
2017-07-28T04:00:01.286Z,14.4
2017-07-28T04:05:02.099Z,14.2
2017-07-28T04:10:01.877Z,14.2
2017-07-28T04:15:01.275Z,14.1
2017-07-28T04:20:01.975Z,14.1
2017-07-28T04:25:01.691Z,14.1
2017-07-28T04:30:01.276Z,14.1
2017-07-28T04:35:01.300Z,14.1
2017-07-28T04:40:02.031Z,14.1
2017-07-28T04:45:02.121Z,14.2
2017-07-28T04:50:01.189Z,14.4
2017-07-28T04:55:01.298Z,14.4
2017-07-28T05:00:01.345Z,14.5
2017-07-28T05:05:01.335Z,14.6
2017-07-28T05:10:01.436Z,14.6
2017-07-28T05:15:01.323Z,14.8
2017-07-28T05:20:01.572Z,14.8
2017-07-28T05:25:01.816Z,14.8
2017-07-28T05:30:01.829Z,15
2017-07-28T05:35:01.249Z,15
2017-07-28T05:40:01.345Z,15
2017-07-28T05:45:01.616Z,15
2017-07-28T05:50:01.583Z,15
2017-07-28T05:55:01.912Z,15.3
2017-07-28T06:00:01.952Z,15.3
2017-07-28T06:05:01.837Z,15.6
2017-07-28T06:10:01.870Z,15.6
2017-07-28T06:15:02.064Z,15.6
2017-07-28T06:20:01.777Z,15.8
2017-07-28T06:25:02.055Z,15.8
2017-07-28T06:30:02.136Z,15.8
2017-07-28T06:35:01.959Z,16.1
2017-07-28T06:40:01.834Z,16.3
2017-07-28T06:45:02.010Z,16.3
2017-07-28T06:50:02.016Z,16.3
2017-07-28T06:55:01.382Z,16.6
2017-07-28T07:00:01.332Z,16.8
2017-07-28T07:05:01.604Z,16.8
2017-07-28T07:10:01.763Z,16.9
2017-07-28T07:15:01.490Z,17.2
2017-07-28T07:20:01.261Z,17.2
2017-07-28T07:25:01.265Z,17.3
2017-07-28T07:30:01.308Z,17.3
2017-07-28T07:35:01.681Z,17.7
2017-07-28T07:40:01.477Z,17.7
2017-07-28T07:45:01.615Z,17.9
2017-07-28T07:50:01.619Z,17.9
2017-07-28T07:55:01.395Z,17.9
2017-07-28T08:00:01.358Z,18
2017-07-28T08:05:01.399Z,18
2017-07-28T08:10:01.250Z,18
2017-07-28T08:15:01.285Z,18
2017-07-28T08:20:02.038Z,18.8
2017-07-28T08:25:01.977Z,18.8
2017-07-28T08:30:02.126Z,18.8
2017-07-28T08:35:02.018Z,19.3
2017-07-28T08:40:01.802Z,19.4
2017-07-28T08:45:01.864Z,19.5
2017-07-28T08:50:01.827Z,19.6
2017-07-28T08:55:01.827Z,19.6
2017-07-28T09:00:01.397Z,19.6
2017-07-28T09:05:01.236Z,19.6
2017-07-28T09:10:01.891Z,19.8
2017-07-28T09:15:01.888Z,19.8
2017-07-28T09:20:01.372Z,19.8
2017-07-28T09:25:02.056Z,20.2
2017-07-28T09:30:01.539Z,20.2
2017-07-28T09:35:01.685Z,20.5
2017-07-28T09:40:01.421Z,20.5
2017-07-28T09:45:01.614Z,20.5
2017-07-28T09:50:01.513Z,20.5
2017-07-28T09:55:01.884Z,20.5
2017-07-28T10:00:01.562Z,20.5
2017-07-28T10:05:01.248Z,20.5
2017-07-28T10:10:02.066Z,20.4
2017-07-28T10:15:01.165Z,20.4
2017-07-28T10:20:01.918Z,20.4
2017-07-28T10:25:01.897Z,20.4
2017-07-28T10:30:01.253Z,20.4
2017-07-28T10:35:01.898Z,20.4
2017-07-28T10:40:01.755Z,20.6
2017-07-28T10:45:01.693Z,20.6
2017-07-28T10:50:01.646Z,20.6
2017-07-28T10:55:02.187Z,20.6
2017-07-28T11:00:01.478Z,20.9
2017-07-28T11:05:01.717Z,20.9
2017-07-28T11:10:01.512Z,20.9
2017-07-28T11:15:01.813Z,20.9
2017-07-28T11:20:01.496Z,21
2017-07-28T11:25:01.999Z,21
2017-07-28T11:30:01.586Z,21
2017-07-28T11:35:02.089Z,21.2
2017-07-28T11:40:01.804Z,21.4
2017-07-28T11:45:01.715Z,21.4
2017-07-28T11:50:01.630Z,21.3
2017-07-28T11:55:01.633Z,21.3
2017-07-28T12:00:01.919Z,21.3
2017-07-28T12:05:01.630Z,21.5
2017-07-28T12:10:01.390Z,21.5
2017-07-28T12:15:01.864Z,21.6
2017-07-28T12:20:01.575Z,21.6
2017-07-28T12:25:01.826Z,21.4
2017-07-28T12:30:02.043Z,21.4
2017-07-28T12:35:02.052Z,21.4
2017-07-28T12:40:01.826Z,21.4
2017-07-28T12:45:01.317Z,21.2
2017-07-28T12:50:01.266Z,21.2
2017-07-28T12:55:02.148Z,21
2017-07-28T13:00:02.126Z,20.8
2017-07-28T13:05:01.295Z,20.7
2017-07-28T13:10:01.887Z,20.6
2017-07-28T13:15:01.686Z,20.6
2017-07-28T13:20:01.985Z,20.4
2017-07-28T13:25:02.318Z,20.4
2017-07-28T13:30:01.478Z,20.2
2017-07-28T13:35:02.210Z,20.2
2017-07-28T13:40:01.409Z,19.3
2017-07-28T13:45:02.077Z,18.4
2017-07-28T13:50:02.310Z,17.9
2017-07-28T13:55:01.923Z,17.9
2017-07-28T14:00:01.270Z,17.6
2017-07-28T14:05:02.077Z,17.6
2017-07-28T14:10:01.188Z,17.6
2017-07-28T14:15:01.225Z,17.6
2017-07-28T14:20:01.848Z,17.6
2017-07-28T14:25:02.128Z,17.5
2017-07-28T14:30:02.178Z,17.5
2017-07-28T14:35:01.372Z,17.5
2017-07-28T14:40:02.103Z,17.6
2017-07-28T14:45:02.151Z,17.6
2017-07-28T14:50:02.018Z,17.7
2017-07-28T14:55:01.783Z,17.7
2017-07-28T15:00:01.503Z,17.7
2017-07-28T15:05:01.741Z,18
2017-07-28T15:10:01.563Z,18
2017-07-28T15:15:01.900Z,18
2017-07-28T15:20:02.172Z,18.2
2017-07-28T15:25:01.632Z,18.2
2017-07-28T15:30:01.781Z,18.2
2017-07-28T15:35:01.237Z,18.4
2017-07-28T15:40:01.965Z,18.4
2017-07-28T15:45:01.991Z,18.4
2017-07-28T15:50:01.926Z,18.5
2017-07-28T15:55:01.330Z,18.5
2017-07-28T16:00:01.337Z,18.6
2017-07-28T16:05:01.735Z,18.6
2017-07-28T16:10:01.432Z,18.8
2017-07-28T16:15:01.465Z,18.8
2017-07-28T16:20:01.479Z,18.8
2017-07-28T16:25:01.337Z,18.9
2017-07-28T16:30:01.478Z,18.9
2017-07-28T16:35:01.589Z,19
2017-07-28T16:40:01.266Z,19
2017-07-28T16:45:01.422Z,18.9
2017-07-28T16:50:01.278Z,18.9
2017-07-28T16:55:01.747Z,18.8
2017-07-28T17:00:01.272Z,18.8
2017-07-28T17:05:01.523Z,18.8
2017-07-28T17:10:01.432Z,18.8
2017-07-28T17:15:01.439Z,18.7
2017-07-28T17:20:01.505Z,18.5
2017-07-28T17:25:01.264Z,18.5
2017-07-28T17:30:01.791Z,18.4
2017-07-28T17:35:02.054Z,18.2
2017-07-28T17:40:01.841Z,18.2
2017-07-28T17:45:01.337Z,18.2
2017-07-28T17:50:01.279Z,18.2
2017-07-28T17:55:02.161Z,18
2017-07-28T18:00:01.353Z,18
2017-07-28T18:05:01.325Z,18
2017-07-28T18:10:01.624Z,18
2017-07-28T18:15:01.447Z,18
2017-07-28T18:20:01.249Z,18
2017-07-28T18:25:01.804Z,17.3
2017-07-28T18:30:01.914Z,17
2017-07-28T18:35:01.407Z,16.8
2017-07-28T18:40:01.165Z,16.8
2017-07-28T18:45:01.840Z,16.8
2017-07-28T18:50:01.895Z,16.8
2017-07-28T18:55:02.150Z,16.8
2017-07-28T19:00:01.204Z,15.6
2017-07-28T19:05:01.325Z,15.5
2017-07-28T19:10:01.223Z,15.5
2017-07-28T19:15:02.140Z,15.4
2017-07-28T19:20:01.194Z,15.4
2017-07-28T19:25:01.231Z,15.3
2017-07-28T19:30:01.398Z,15.3
2017-07-28T19:35:01.493Z,15.3
2017-07-28T19:40:01.346Z,15.3
2017-07-28T19:45:01.780Z,15.3
2017-07-28T19:50:02.428Z,15.2
2017-07-28T19:55:01.338Z,15.2
2017-07-28T20:00:01.789Z,15.2
2017-07-28T20:05:01.430Z,15
2017-07-28T20:10:01.574Z,15
2017-07-28T20:15:01.924Z,15
2017-07-28T20:20:01.514Z,15
2017-07-28T20:25:01.908Z,15
2017-07-28T20:30:01.959Z,15
2017-07-28T20:35:01.398Z,15
2017-07-28T20:40:01.935Z,15
2017-07-28T20:45:01.444Z,15
2017-07-28T20:50:01.459Z,15
2017-07-28T20:55:01.803Z,15
2017-07-28T21:00:02.107Z,15
2017-07-28T21:05:01.576Z,15
2017-07-28T21:10:02.074Z,15
2017-07-28T21:15:01.177Z,15
2017-07-28T21:20:01.381Z,15
2017-07-28T21:25:01.763Z,15
2017-07-28T21:30:01.965Z,15
2017-07-28T21:35:02.210Z,15
2017-07-28T21:40:01.970Z,14.8
2017-07-28T21:45:01.684Z,14.7
2017-07-28T21:50:01.934Z,14.6
2017-07-28T21:55:02.128Z,14.5
2017-07-28T22:00:01.356Z,14.5
2017-07-28T22:05:01.860Z,14.5
2017-07-28T22:10:01.882Z,14.4
2017-07-28T22:15:01.628Z,14.4
2017-07-28T22:20:01.727Z,14.3
2017-07-28T22:25:01.645Z,14.3
2017-07-28T22:30:01.708Z,14.2
2017-07-28T22:35:01.242Z,14.2
2017-07-28T22:40:01.319Z,14.2
2017-07-28T22:45:01.524Z,14.2
2017-07-28T22:50:01.235Z,14.2
2017-07-28T22:55:01.864Z,14.2
2017-07-28T23:00:01.696Z,14.2
2017-07-28T23:05:01.213Z,14.2
2017-07-28T23:10:01.927Z,14.2
2017-07-28T23:15:02.007Z,14.2
2017-07-28T23:20:01.753Z,14.2
2017-07-28T23:25:01.301Z,14.2
2017-07-28T23:30:02.127Z,14.2
2017-07-28T23:35:01.670Z,14.1
2017-07-28T23:40:01.456Z,14.1
2017-07-28T23:45:01.865Z,14.1
2017-07-28T23:50:01.561Z,14.1
2017-07-28T23:55:01.938Z,14.1
